createdAt,value
2018-05-04T00:00:29.819Z,11.77
2018-05-04T00:02:58.169Z,13.33
2018-05-04T00:05:25.738Z,12.37
2018-05-04T00:07:53.399Z,12.03
2018-05-04T00:10:22.128Z,12.30
2018-05-04T00:12:50.123Z,12.30
2018-05-04T00:15:17.701Z,11.63
2018-05-04T00:17:45.383Z,12.20
2018-05-04T00:20:12.966Z,11.10
2018-05-04T00:22:41.422Z,11.40
2018-05-04T00:25:08.994Z,11.37
2018-05-04T00:27:37.133Z,10.10
2018-05-04T00:30:04.701Z,11.17
2018-05-04T00:32:32.273Z,10.13
2018-05-04T00:34:59.948Z,10.30
2018-05-04T00:37:27.581Z,10.30
2018-05-04T00:39:55.121Z,9.67
2018-05-04T00:42:22.787Z,9.63
2018-05-04T00:44:50.361Z,8.80
2018-05-04T00:47:17.898Z,9.40
2018-05-04T00:49:45.486Z,8.43
2018-05-04T00:52:13.018Z,8.93
2018-05-04T00:54:40.556Z,9.20
2018-05-04T00:57:08.869Z,8.77
2018-05-04T00:59:36.401Z,8.73
2018-05-04T01:02:03.945Z,9.13
2018-05-04T01:04:32.273Z,9.17
2018-05-04T01:06:59.836Z,9.80
2018-05-04T01:09:29.923Z,9.77
2018-05-04T01:11:57.456Z,9.20
2018-05-04T01:14:25.168Z,8.60
2018-05-04T01:16:52.701Z,9.30
2018-05-04T01:19:21.022Z,9.00
2018-05-04T01:21:48.564Z,8.97
2018-05-04T01:24:16.132Z,8.87
2018-05-04T01:26:43.665Z,9.57
2018-05-04T01:29:11.261Z,8.80
2018-05-04T01:31:38.788Z,8.67
2018-05-04T01:34:06.381Z,9.03
2018-05-04T01:36:33.941Z,9.70
2018-05-04T01:39:01.478Z,9.43
2018-05-04T01:41:29.017Z,9.40
2018-05-04T01:43:57.333Z,9.77
2018-05-04T01:46:24.872Z,8.50
2018-05-04T01:48:52.400Z,8.47
2018-05-04T01:51:20.013Z,9.50
2018-05-04T01:53:47.553Z,9.13
2018-05-04T01:56:15.142Z,9.63
2018-05-04T01:58:42.693Z,9.30
2018-05-04T02:01:10.229Z,9.37
2018-05-04T02:03:37.821Z,8.90
2018-05-04T02:06:05.385Z,9.17
2018-05-04T02:08:32.925Z,8.90
2018-05-04T02:11:00.505Z,9.53
2018-05-04T02:13:28.049Z,9.50
2018-05-04T02:15:55.621Z,9.50
2018-05-04T02:18:23.185Z,8.80
2018-05-04T02:20:50.746Z,8.47
2018-05-04T02:23:18.285Z,9.27
2018-05-04T02:25:45.829Z,8.90
2018-05-04T02:28:13.366Z,9.83
2018-05-04T02:30:41.671Z,9.23
2018-05-04T02:33:09.266Z,9.60
2018-05-04T02:35:36.810Z,9.03
2018-05-04T02:38:04.389Z,9.43
2018-05-04T02:40:32.045Z,8.90
2018-05-04T02:42:59.580Z,8.67
2018-05-04T02:45:27.117Z,9.20
2018-05-04T02:47:55.449Z,9.43
2018-05-04T02:50:22.990Z,8.70
2018-05-04T02:52:50.569Z,9.10
2018-05-04T02:55:18.121Z,9.27
2018-05-04T02:57:45.656Z,8.97
2018-05-04T03:00:13.202Z,10.07
2018-05-04T03:02:41.525Z,9.80
2018-05-04T03:05:09.069Z,9.07
2018-05-04T03:07:36.643Z,9.77
2018-05-04T03:10:04.186Z,9.80
2018-05-04T03:12:31.765Z,8.73
2018-05-04T03:15:00.145Z,9.00
2018-05-04T03:17:27.705Z,9.43
2018-05-04T03:19:55.246Z,9.77
2018-05-04T03:22:22.791Z,9.87
2018-05-04T03:24:50.381Z,9.10
2018-05-04T03:27:17.870Z,9.73
2018-05-04T03:29:45.335Z,10.17
2018-05-04T03:32:12.804Z,10.33
2018-05-04T03:34:40.261Z,8.97
2018-05-04T03:37:07.728Z,10.10
2018-05-04T03:39:35.983Z,9.30
2018-05-04T03:42:03.541Z,9.70
2018-05-04T03:44:31.058Z,10.30
2018-05-04T03:46:58.512Z,10.20
2018-05-04T03:49:26.120Z,9.50
2018-05-04T03:51:53.540Z,9.70
2018-05-04T03:54:21.096Z,9.33
2018-05-04T03:56:48.601Z,10.60
2018-05-04T03:59:27.968Z,9.77
2018-05-04T04:02:08.292Z,10.90
2018-05-04T04:04:35.764Z,10.03
2018-05-04T04:07:03.224Z,10.63
2018-05-04T04:09:30.769Z,10.60
2018-05-04T04:11:58.228Z,10.73
2018-05-04T04:14:25.697Z,10.40
2018-05-04T04:16:53.164Z,11.50
2018-05-04T04:19:21.397Z,11.47
2018-05-04T04:21:48.865Z,11.53
2018-05-04T04:24:16.441Z,12.57
2018-05-04T04:26:44.004Z,11.50
2018-05-04T04:29:11.469Z,11.97
2018-05-04T04:31:38.938Z,13.13
2018-05-04T04:34:07.178Z,12.07
2018-05-04T04:36:34.641Z,12.40
2018-05-04T04:39:02.101Z,12.13
2018-05-04T04:41:29.669Z,13.07
2018-05-04T04:43:57.945Z,12.77
2018-05-04T04:46:25.420Z,14.23
2018-05-04T04:48:52.884Z,14.33
2018-05-04T04:51:21.252Z,13.53
2018-05-04T04:53:48.717Z,13.57
2018-05-04T04:56:16.256Z,12.47
2018-05-04T04:58:43.823Z,13.17
2018-05-04T05:01:11.289Z,13.53
2018-05-04T05:03:38.740Z,13.03
2018-05-04T05:06:06.297Z,13.13
2018-05-04T05:08:33.861Z,13.07
2018-05-04T05:11:01.416Z,12.80
2018-05-04T05:13:29.099Z,13.53
2018-05-04T05:15:56.505Z,13.87
2018-05-04T05:18:23.989Z,13.40
2018-05-04T05:20:51.556Z,13.77
2018-05-04T05:23:19.120Z,13.60
2018-05-04T05:25:46.674Z,14.10
2018-05-04T05:28:14.138Z,14.00
2018-05-04T05:30:41.690Z,13.83
2018-05-04T05:33:09.257Z,14.47
2018-05-04T05:35:36.886Z,13.03
2018-05-04T05:38:04.389Z,13.17
2018-05-04T05:40:31.941Z,13.13
2018-05-04T05:42:59.492Z,14.83
2018-05-04T05:45:27.057Z,15.27
2018-05-04T05:47:54.616Z,14.13
2018-05-04T05:50:22.085Z,14.80
2018-05-04T05:52:49.559Z,14.20
2018-05-04T05:55:17.908Z,15.13
2018-05-04T05:57:45.370Z,14.53
2018-05-04T06:00:12.921Z,14.47
2018-05-04T06:02:40.389Z,14.20
2018-05-04T06:05:07.858Z,14.77
2018-05-04T06:07:35.409Z,15.17
2018-05-04T06:10:02.877Z,14.63
2018-05-04T06:12:30.345Z,14.47
2018-05-04T06:14:58.618Z,13.13
2018-05-04T06:17:26.162Z,14.37
2018-05-04T06:19:53.729Z,14.23
2018-05-04T06:22:21.294Z,14.33
2018-05-04T06:24:48.783Z,13.93
2018-05-04T06:27:17.018Z,14.53
2018-05-04T06:29:44.472Z,13.93
2018-05-04T06:32:11.937Z,13.40
2018-05-04T06:34:39.493Z,12.97
2018-05-04T06:37:06.966Z,12.83
2018-05-04T06:39:34.470Z,12.10
2018-05-04T06:42:02.669Z,12.80
2018-05-04T06:44:30.241Z,13.57
2018-05-04T06:46:57.710Z,12.33
2018-05-04T06:49:25.264Z,12.40
2018-05-04T06:51:52.716Z,12.63
2018-05-04T06:54:20.281Z,13.90
2018-05-04T06:56:47.746Z,12.13
2018-05-04T06:59:15.320Z,13.47
2018-05-04T07:01:42.861Z,13.00
2018-05-04T07:04:10.325Z,13.73
2018-05-04T07:06:37.881Z,12.20
2018-05-04T07:09:05.410Z,12.80
2018-05-04T07:11:33.572Z,13.70
2018-05-04T07:14:01.072Z,13.37
2018-05-04T07:16:28.538Z,14.73
2018-05-04T07:18:56.094Z,14.03
2018-05-04T07:21:23.656Z,13.60
2018-05-04T07:23:51.168Z,13.20
2018-05-04T07:26:18.625Z,13.40
2018-05-04T07:28:46.200Z,13.30
2018-05-04T07:31:13.679Z,12.73
2018-05-04T07:33:41.145Z,14.30
2018-05-04T07:36:08.621Z,13.03
2018-05-04T07:38:36.168Z,13.17
2018-05-04T07:41:03.633Z,13.90
2018-05-04T07:43:31.189Z,13.83
2018-05-04T07:45:59.457Z,13.07
2018-05-04T07:48:27.023Z,13.37
2018-05-04T07:50:54.580Z,14.57
2018-05-04T07:53:22.055Z,13.50
2018-05-04T07:55:49.517Z,13.43
2018-05-04T07:58:17.759Z,13.57
2018-05-04T08:00:45.334Z,12.53
2018-05-04T08:03:12.821Z,14.23
2018-05-04T08:05:41.053Z,13.67
2018-05-04T08:08:08.632Z,13.33
2018-05-04T08:10:36.181Z,14.13
2018-05-04T08:13:03.644Z,12.90
2018-05-04T08:15:31.104Z,12.97
2018-05-04T08:17:58.569Z,13.90
2018-05-04T08:20:26.124Z,13.20
2018-05-04T08:22:53.680Z,14.07
2018-05-04T08:25:21.141Z,13.20
2018-05-04T08:27:48.600Z,14.30
2018-05-04T08:30:16.219Z,13.83
2018-05-04T08:32:43.669Z,13.63
2018-05-04T08:35:11.169Z,13.67
2018-05-04T08:37:38.613Z,13.20
2018-05-04T08:40:06.072Z,13.57
2018-05-04T08:42:33.536Z,13.57
2018-05-04T08:45:01.768Z,13.90
2018-05-04T08:47:29.288Z,13.90
2018-05-04T08:49:56.854Z,14.77
2018-05-04T08:52:24.319Z,15.53
2018-05-04T08:54:51.869Z,14.30
2018-05-04T08:57:19.446Z,14.50
2018-05-04T08:59:47.032Z,16.87
2018-05-04T09:02:14.461Z,15.93
2018-05-04T09:04:42.010Z,16.83
2018-05-04T09:07:09.480Z,16.67
2018-05-04T09:09:36.937Z,16.10
2018-05-04T09:12:04.401Z,17.07
2018-05-04T09:14:32.657Z,17.00
2018-05-04T09:17:00.882Z,17.00
2018-05-04T09:19:28.343Z,18.40
2018-05-04T09:21:55.808Z,19.53
2018-05-04T09:24:23.268Z,19.40
2018-05-04T09:26:50.728Z,19.60
2018-05-04T09:29:18.204Z,19.57
2018-05-04T09:31:45.674Z,18.57
2018-05-04T09:34:13.145Z,19.13
2018-05-04T09:36:40.622Z,20.57
2018-05-04T09:39:08.863Z,19.90
2018-05-04T09:41:36.428Z,18.97
2018-05-04T09:44:03.897Z,19.40
2018-05-04T09:46:31.453Z,18.07
2018-05-04T09:48:58.926Z,19.60
2018-05-04T09:51:26.388Z,17.90
2018-05-04T09:53:53.929Z,19.40
2018-05-04T09:56:21.493Z,20.30
2018-05-04T09:58:48.965Z,20.27
2018-05-04T10:01:16.425Z,21.63
2018-05-04T10:03:44.664Z,20.33
2018-05-04T10:06:12.129Z,22.67
2018-05-04T10:08:39.592Z,21.07
2018-05-04T10:11:07.158Z,21.87
2018-05-04T10:13:34.621Z,20.17
2018-05-04T10:16:02.242Z,20.20
2018-05-04T10:18:29.739Z,20.10
2018-05-04T10:20:57.246Z,21.23
2018-05-04T10:23:24.669Z,21.07
2018-05-04T10:25:52.212Z,19.87
2018-05-04T10:28:19.692Z,21.10
2018-05-04T10:30:47.929Z,19.30
2018-05-04T10:33:15.388Z,22.03
2018-05-04T10:35:42.848Z,21.40
2018-05-04T10:38:10.574Z,20.10
2018-05-04T10:40:37.901Z,21.03
2018-05-04T10:43:05.442Z,23.93
2018-05-04T10:45:32.982Z,20.70
2018-05-04T10:48:00.373Z,20.83
2018-05-04T10:50:27.837Z,20.63
2018-05-04T10:52:56.088Z,19.57
2018-05-04T10:55:23.653Z,21.00
2018-05-04T10:57:51.128Z,22.13
2018-05-04T11:00:18.669Z,21.40
2018-05-04T11:02:46.138Z,20.17
2018-05-04T11:05:13.697Z,20.87
2018-05-04T11:07:41.257Z,20.03
2018-05-04T11:10:08.813Z,20.20
2018-05-04T11:12:36.273Z,19.57
2018-05-04T11:15:03.737Z,20.77
2018-05-04T11:17:31.206Z,18.87
2018-05-04T11:19:58.671Z,18.60
2018-05-04T11:22:26.917Z,20.33
2018-05-04T11:24:54.481Z,19.20
2018-05-04T11:27:21.945Z,19.63
2018-05-04T11:29:49.409Z,20.80
2018-05-04T11:32:16.960Z,19.37
2018-05-04T11:34:44.516Z,20.00
2018-05-04T11:37:12.076Z,20.53
2018-05-04T11:39:39.536Z,23.97
2018-05-04T11:42:07.019Z,19.43
2018-05-04T11:44:34.552Z,21.00
2018-05-04T11:47:02.017Z,24.40
2018-05-04T11:49:29.533Z,19.77
2018-05-04T11:51:57.749Z,21.77
2018-05-04T11:54:25.309Z,20.30
2018-05-04T11:56:52.776Z,20.50
2018-05-04T11:59:20.329Z,19.30
2018-05-04T12:01:47.886Z,19.23
2018-05-04T12:04:15.353Z,20.33
2018-05-04T12:06:42.896Z,19.23
2018-05-04T12:09:10.469Z,20.03
2018-05-04T12:11:38.021Z,19.53
2018-05-04T12:14:05.489Z,20.37
2018-05-04T12:16:33.128Z,19.33
2018-05-04T12:19:00.504Z,19.57
2018-05-04T12:21:27.964Z,19.53
2018-05-04T12:23:55.455Z,17.83
2018-05-04T12:26:23.680Z,19.47
2018-05-04T12:28:51.152Z,18.00
2018-05-04T12:31:18.713Z,17.50
2018-05-04T12:33:46.268Z,17.13
2018-05-04T12:36:13.833Z,18.07
2018-05-04T12:38:41.399Z,17.97
2018-05-04T12:41:08.952Z,17.23
2018-05-04T12:43:36.513Z,18.03
2018-05-04T12:46:04.006Z,16.73
2018-05-04T12:48:32.249Z,18.13
2018-05-04T12:50:59.713Z,16.07
2018-05-04T12:53:27.295Z,17.97
2018-05-04T12:55:54.744Z,17.67
2018-05-04T12:58:22.202Z,18.30
2018-05-04T13:00:49.668Z,20.23
2018-05-04T13:03:17.905Z,18.80
2018-05-04T13:05:45.368Z,19.63
2018-05-04T13:08:12.833Z,19.57
2018-05-04T13:10:40.304Z,19.60
2018-05-04T13:13:07.769Z,18.43
2018-05-04T13:15:36.075Z,19.77
2018-05-04T13:18:03.465Z,17.23
2018-05-04T13:20:30.945Z,17.93
2018-05-04T13:22:58.416Z,17.90
2018-05-04T13:25:25.894Z,16.47
2018-05-04T13:27:54.137Z,16.67
2018-05-04T13:30:21.612Z,16.30
2018-05-04T13:32:49.075Z,16.57
2018-05-04T13:35:17.326Z,16.33
2018-05-04T13:37:44.885Z,17.00
2018-05-04T13:40:12.450Z,18.57
2018-05-04T13:42:40.677Z,15.90
2018-05-04T13:45:08.185Z,16.60
2018-05-04T13:47:35.649Z,17.43
2018-05-04T13:50:03.206Z,17.80
2018-05-04T13:52:30.766Z,17.03
2018-05-04T13:54:59.036Z,17.67
2018-05-04T13:57:26.602Z,17.80
2018-05-04T13:59:54.156Z,19.03
2018-05-04T14:02:21.621Z,15.83
2018-05-04T14:04:49.085Z,18.10
2018-05-04T14:07:16.553Z,17.33
2018-05-04T14:09:44.021Z,18.40
2018-05-04T14:12:12.249Z,18.87
2018-05-04T14:14:39.730Z,19.70
2018-05-04T14:17:07.188Z,18.63
2018-05-04T14:19:34.665Z,18.93
2018-05-04T14:22:02.923Z,18.43
2018-05-04T14:24:30.396Z,17.17
2018-05-04T14:26:57.941Z,19.50
2018-05-04T14:29:25.401Z,18.50
2018-05-04T14:31:52.914Z,18.70
2018-05-04T14:34:20.369Z,18.57
2018-05-04T14:36:47.872Z,17.60
2018-05-04T14:39:15.341Z,18.17
2018-05-04T14:41:43.581Z,18.40
2018-05-04T14:44:11.065Z,19.30
2018-05-04T14:46:38.629Z,19.23
2018-05-04T14:49:06.110Z,19.00
2018-05-04T14:51:34.361Z,19.90
2018-05-04T14:54:01.825Z,18.07
2018-05-04T14:56:29.299Z,18.37
2018-05-04T14:58:57.526Z,17.77
2018-05-04T15:01:24.996Z,19.13
2018-05-04T15:03:52.481Z,18.73
2018-05-04T15:06:19.952Z,20.67
2018-05-04T15:08:48.211Z,20.17
2018-05-04T15:11:15.677Z,19.90
2018-05-04T15:13:43.285Z,19.97
2018-05-04T15:16:10.741Z,19.90
2018-05-04T15:18:38.251Z,18.50
2018-05-04T15:21:05.718Z,20.43
2018-05-04T15:23:33.190Z,20.03
2018-05-04T15:26:01.426Z,20.17
2018-05-04T15:28:28.916Z,20.87
2018-05-04T15:30:57.173Z,21.67
2018-05-04T15:33:24.649Z,19.87
2018-05-04T15:35:52.889Z,19.90
2018-05-04T15:38:20.365Z,20.60
2018-05-04T15:40:47.926Z,21.13
2018-05-04T15:43:15.389Z,19.87
2018-05-04T15:45:42.857Z,19.93
2018-05-04T15:48:15.996Z,19.40
2018-05-04T15:53:43.641Z,18.97
2018-05-04T15:56:11.881Z,19.20
2018-05-04T15:58:39.363Z,19.47
2018-05-04T16:01:06.908Z,19.07
2018-05-04T16:03:34.368Z,19.23
2018-05-04T16:06:01.840Z,18.37
2018-05-04T16:08:29.300Z,18.53
2018-05-04T16:10:56.846Z,19.07
2018-05-04T16:13:24.309Z,18.97
2018-05-04T16:15:51.865Z,17.43
2018-05-04T16:18:19.328Z,18.00
2018-05-04T16:20:47.561Z,17.20
2018-05-04T16:23:15.025Z,17.50
2018-05-04T16:25:42.520Z,17.60
2018-05-04T16:28:09.997Z,15.30
2018-05-04T16:30:38.237Z,15.73
2018-05-04T16:33:05.705Z,16.23
2018-05-04T16:35:33.273Z,15.60
2018-05-04T16:38:00.752Z,16.77
2018-05-04T16:40:28.289Z,16.20
2018-05-04T16:42:55.752Z,16.83
2018-05-04T16:45:23.216Z,15.83
2018-05-04T16:47:56.353Z,15.50
2018-05-04T16:50:23.809Z,15.40
2018-05-04T16:52:51.277Z,14.87
2018-05-04T16:55:18.735Z,14.57
2018-05-04T16:57:46.212Z,15.70
2018-05-04T17:00:13.677Z,15.13
2018-05-04T17:02:41.141Z,14.57
2018-05-04T17:05:08.705Z,14.53
2018-05-04T17:07:36.181Z,15.37
2018-05-04T17:10:03.644Z,14.87
2018-05-04T17:12:31.891Z,16.20
2018-05-04T17:14:59.348Z,15.67
2018-05-04T17:17:26.808Z,16.83
2018-05-04T17:19:54.372Z,16.03
2018-05-04T17:22:21.842Z,16.07
2018-05-04T17:24:49.310Z,15.13
2018-05-04T17:27:17.544Z,15.93
2018-05-04T17:29:45.013Z,16.40
2018-05-04T17:32:12.477Z,16.53
2018-05-04T17:34:40.051Z,16.00
2018-05-04T17:37:07.521Z,16.67
2018-05-04T17:39:35.058Z,16.57
2018-05-04T17:42:02.530Z,16.23
2018-05-04T17:44:29.984Z,17.47
2018-05-04T17:46:58.222Z,16.13
2018-05-04T17:49:25.689Z,17.97
2018-05-04T17:51:53.153Z,17.87
2018-05-04T17:54:20.625Z,18.00
2018-05-04T17:56:48.101Z,18.60
2018-05-04T17:59:15.568Z,17.13
2018-05-04T18:01:44.029Z,16.67
2018-05-04T18:04:11.504Z,17.73
2018-05-04T18:06:39.741Z,19.07
2018-05-04T18:09:07.216Z,18.57
2018-05-04T18:11:34.783Z,18.90
2018-05-04T18:14:02.341Z,18.93
2018-05-04T18:16:29.809Z,17.50
2018-05-04T18:18:57.356Z,18.83
2018-05-04T18:21:24.821Z,18.70
2018-05-04T18:23:52.389Z,17.27
2018-05-04T18:26:20.002Z,18.57
2018-05-04T18:28:47.470Z,19.07
2018-05-04T18:31:14.962Z,19.23
2018-05-04T18:33:42.421Z,19.40
2018-05-04T18:36:09.904Z,19.00
2018-05-04T18:38:38.149Z,19.37
2018-05-04T18:41:05.613Z,19.63
2018-05-04T18:43:33.075Z,19.47
2018-05-04T18:46:01.341Z,19.10
2018-05-04T18:48:30.200Z,20.33
2018-05-04T18:50:57.688Z,20.73
2018-05-04T18:53:25.157Z,21.23
2018-05-04T18:55:52.619Z,20.53
2018-05-04T18:58:20.084Z,20.73
2018-05-04T19:00:48.345Z,20.07
2018-05-04T19:03:21.832Z,21.20
2018-05-04T19:05:49.408Z,21.10
2018-05-04T19:08:16.973Z,21.03
2018-05-04T19:10:44.441Z,21.53
2018-05-04T19:13:12.697Z,21.50
2018-05-04T19:15:40.177Z,20.73
2018-05-04T19:18:08.408Z,21.33
2018-05-04T19:20:35.960Z,23.60
2018-05-04T19:23:03.347Z,20.40
2018-05-04T19:25:30.866Z,21.67
2018-05-04T19:27:58.369Z,20.07
2018-05-04T19:30:25.833Z,19.83
2018-05-04T19:32:54.105Z,19.67
2018-05-04T19:35:21.656Z,20.87
2018-05-04T19:37:49.129Z,19.57
2018-05-04T19:40:16.676Z,21.87
2018-05-04T19:42:44.164Z,21.57
2018-05-04T19:45:12.392Z,21.07
2018-05-04T19:47:39.861Z,20.47
2018-05-04T19:50:07.363Z,20.97
2018-05-04T19:52:35.694Z,20.63
2018-05-04T19:55:03.169Z,21.97
2018-05-04T19:57:30.734Z,21.80
2018-05-04T19:59:58.288Z,21.87
2018-05-04T20:02:25.850Z,25.00
2018-05-04T20:04:53.414Z,21.90
2018-05-04T20:07:20.904Z,22.47
2018-05-04T20:09:49.132Z,21.67
2018-05-04T20:12:16.765Z,29.17
2018-05-04T20:14:44.265Z,21.50
2018-05-04T20:17:11.730Z,21.20
2018-05-04T20:19:39.203Z,21.67
2018-05-04T20:22:07.472Z,22.00
2018-05-04T20:24:34.933Z,23.83
2018-05-04T20:27:02.476Z,22.77
2018-05-04T20:29:30.036Z,21.93
2018-05-04T20:31:57.597Z,20.60
2018-05-04T20:34:25.058Z,23.10
2018-05-04T20:36:52.619Z,23.10
2018-05-04T20:39:20.085Z,22.47
2018-05-04T20:41:47.549Z,22.67
2018-05-04T20:44:15.107Z,22.80
2018-05-04T20:46:42.516Z,22.33
2018-05-04T20:49:09.976Z,23.27
2018-05-04T20:51:37.468Z,25.37
2018-05-04T20:54:04.929Z,23.07
2018-05-04T20:56:32.392Z,22.93
2018-05-04T20:58:59.957Z,24.17
2018-05-04T21:01:27.316Z,23.07
2018-05-04T21:03:55.577Z,24.50
2018-05-04T21:06:23.830Z,23.20
2018-05-04T21:08:51.277Z,30.43
2018-05-04T21:11:18.764Z,23.07
2018-05-04T21:13:46.237Z,24.03
2018-05-04T21:16:13.744Z,23.87
2018-05-04T21:18:41.201Z,26.00
2018-05-04T21:21:08.700Z,23.70
2018-05-04T21:23:36.176Z,25.10
2018-05-04T21:26:03.733Z,23.90
2018-05-04T21:28:31.288Z,25.40
2018-05-04T21:30:58.749Z,24.80
2018-05-04T21:33:26.208Z,25.50
2018-05-04T21:35:53.845Z,24.73
2018-05-04T21:38:21.311Z,24.23
2018-05-04T21:40:48.876Z,25.60
2018-05-04T21:43:16.361Z,24.07
2018-05-04T21:45:44.616Z,25.90
2018-05-04T21:48:12.181Z,25.47
2018-05-04T21:50:39.645Z,24.60
2018-05-04T21:53:07.196Z,24.37
2018-05-04T21:55:34.667Z,24.27
2018-05-04T21:58:02.213Z,24.70
2018-05-04T22:00:29.764Z,24.60
2018-05-04T22:02:57.332Z,23.93
2018-05-04T22:05:24.797Z,25.70
2018-05-04T22:07:52.269Z,23.90
2018-05-04T22:10:19.725Z,24.93
2018-05-04T22:12:47.969Z,25.67
2018-05-04T22:15:15.432Z,24.53
2018-05-04T22:17:42.901Z,24.47
2018-05-04T22:20:10.461Z,24.97
2018-05-04T22:22:38.016Z,24.57
2018-05-04T22:25:05.493Z,25.10
2018-05-04T22:27:33.040Z,26.33
2018-05-04T22:30:00.592Z,26.07
2018-05-04T22:32:28.157Z,25.70
2018-05-04T22:34:55.720Z,25.60
2018-05-04T22:37:23.272Z,27.10
2018-05-04T22:39:50.738Z,26.33
2018-05-04T22:42:18.200Z,27.30
2018-05-04T22:44:45.669Z,26.43
2018-05-04T22:47:13.213Z,27.53
2018-05-04T22:49:40.688Z,26.80
2018-05-04T22:52:08.157Z,27.00
2018-05-04T22:54:36.406Z,27.67
2018-05-04T22:57:03.876Z,29.27
2018-05-04T22:59:31.345Z,27.93
2018-05-04T23:01:59.592Z,27.23
2018-05-04T23:04:27.058Z,27.40
2018-05-04T23:06:54.525Z,27.80
2018-05-04T23:09:22.076Z,29.23
2018-05-04T23:11:49.592Z,29.63
2018-05-04T23:14:17.092Z,27.97
2018-05-04T23:16:45.328Z,29.13
2018-05-04T23:19:12.826Z,29.23
2018-05-04T23:21:40.388Z,28.30
2018-05-04T23:24:07.948Z,27.47
2018-05-04T23:26:35.513Z,28.00
2018-05-04T23:29:02.968Z,29.17
2018-05-04T23:31:30.445Z,27.97
2018-05-04T23:33:58.764Z,29.57
2018-05-04T23:36:26.268Z,28.80
2018-05-04T23:38:53.824Z,27.77
2018-05-04T23:41:22.105Z,30.07
2018-05-04T23:43:49.660Z,30.47
2018-05-04T23:46:17.222Z,29.10
2018-05-04T23:48:45.448Z,29.50
2018-05-04T23:51:12.913Z,30.83
2018-05-04T23:53:40.396Z,29.37
2018-05-04T23:56:07.857Z,29.33
2018-05-04T23:58:35.393Z,26.37
